createdAt,value
2019-04-14T00:00:27.765Z,17.07
2019-04-14T00:02:57.892Z,23.20
2019-04-14T00:05:27.932Z,21.40
2019-04-14T00:07:58.042Z,20.67
2019-04-14T00:10:26.870Z,17.03
2019-04-14T00:12:55.667Z,21.30
2019-04-14T00:15:32.320Z,19.60
2019-04-14T00:17:54.661Z,19.77
2019-04-14T00:20:23.214Z,17.33
2019-04-14T00:22:51.694Z,21.50
2019-04-14T00:25:20.239Z,18.20
2019-04-14T00:27:49.962Z,16.00
2019-04-14T00:30:18.898Z,28.00
2019-04-14T00:32:49.173Z,17.23
2019-04-14T00:35:34.239Z,17.00
2019-04-14T00:38:08.467Z,21.27
2019-04-14T00:40:39.014Z,16.00
2019-04-14T00:43:09.289Z,19.10
2019-04-14T00:45:47.793Z,18.57
2019-04-14T00:48:15.905Z,19.43
2019-04-14T00:50:43.096Z,18.50
2019-04-14T00:53:12.184Z,18.60
2019-04-14T00:55:40.796Z,22.63
2019-04-14T00:58:10.350Z,17.53
2019-04-14T01:00:39.096Z,19.90
2019-04-14T01:03:07.565Z,23.73
2019-04-14T01:05:37.419Z,21.20
2019-04-14T01:08:07.259Z,18.10
2019-04-14T01:10:36.792Z,21.37
2019-04-14T01:13:08.424Z,23.23
2019-04-14T01:15:49.065Z,19.13
2019-04-14T01:18:06.175Z,17.87
2019-04-14T01:20:36.296Z,19.97
2019-04-14T01:23:06.226Z,30.10
2019-04-14T01:25:36.733Z,23.77
2019-04-14T01:28:05.295Z,21.67
2019-04-14T01:30:35.032Z,21.67
2019-04-14T01:33:03.875Z,20.00
2019-04-14T01:35:33.448Z,25.83
2019-04-14T01:38:01.901Z,20.67
2019-04-14T01:40:31.459Z,27.60
2019-04-14T01:43:00.131Z,24.17
2019-04-14T01:45:29.617Z,26.47
2019-04-14T01:47:58.181Z,27.47
2019-04-14T01:50:34.457Z,20.70
2019-04-14T01:53:05.383Z,22.17
2019-04-14T01:55:44.834Z,18.50
2019-04-14T01:58:14.991Z,21.57
2019-04-14T02:00:51.275Z,19.73
2019-04-14T02:03:19.779Z,22.30
2019-04-14T02:05:49.535Z,23.20
2019-04-14T02:08:18.105Z,24.93
2019-04-14T02:10:47.867Z,20.03
2019-04-14T02:13:16.621Z,22.43
2019-04-14T02:15:46.239Z,22.50
2019-04-14T02:18:16.286Z,28.40
2019-04-14T02:20:44.921Z,30.93
2019-04-14T02:23:14.579Z,21.57
2019-04-14T02:25:43.250Z,28.60
2019-04-14T02:28:11.891Z,23.43
2019-04-14T02:30:49.338Z,23.70
2019-04-14T02:33:41.476Z,20.93
2019-04-14T02:36:14.711Z,19.53
2019-04-14T02:41:10.708Z,20.87
2019-04-14T02:43:37.603Z,20.67
2019-04-14T02:46:02.463Z,21.73
2019-04-14T02:48:44.834Z,19.70
2019-04-14T02:51:12.325Z,19.13
2019-04-14T03:01:21.205Z,22.70
2019-04-14T03:03:41.594Z,17.83
2019-04-14T03:06:10.520Z,20.83
2019-04-14T03:08:47.670Z,15.30
2019-04-14T03:11:09.399Z,19.07
2019-04-14T03:16:13.735Z,17.10
2019-04-14T03:21:38.180Z,16.97
2019-04-14T03:24:09.079Z,17.67
2019-04-14T03:29:26.885Z,19.80
2019-04-14T03:39:36.969Z,23.33
2019-04-14T03:42:00.388Z,17.60
2019-04-14T03:44:28.088Z,17.53
2019-04-14T03:46:57.125Z,16.20
2019-04-14T03:49:31.816Z,15.63
2019-04-14T03:51:57.850Z,23.27
2019-04-14T03:54:20.510Z,18.50
2019-04-14T03:56:51.232Z,19.17
2019-04-14T03:59:20.171Z,20.83
2019-04-14T04:01:49.941Z,17.97
2019-04-14T04:04:18.933Z,19.47
2019-04-14T04:06:48.602Z,19.80
2019-04-14T04:09:17.287Z,21.60
2019-04-14T04:11:45.800Z,21.87
2019-04-14T04:14:14.360Z,17.93
2019-04-14T04:16:57.308Z,21.83
2019-04-14T04:19:31.576Z,22.00
2019-04-14T04:22:17.887Z,18.50
2019-04-14T04:24:48.009Z,19.50
2019-04-14T04:27:36.146Z,20.40
2019-04-14T04:30:08.779Z,19.30
2019-04-14T04:32:51.536Z,20.00
2019-04-14T04:35:24.655Z,21.77
2019-04-14T04:37:54.861Z,22.13
2019-04-14T04:40:28.926Z,20.20
2019-04-14T04:42:57.647Z,19.13
2019-04-14T04:45:26.124Z,23.03
2019-04-14T04:47:55.613Z,20.23
2019-04-14T04:50:24.286Z,23.43
2019-04-14T04:52:53.917Z,21.33
2019-04-14T04:55:22.604Z,19.97
2019-04-14T04:57:52.316Z,19.10
2019-04-14T05:00:22.189Z,20.73
2019-04-14T05:02:50.829Z,20.47
2019-04-14T05:05:55.808Z,21.90
2019-04-14T05:08:24.465Z,20.50
2019-04-14T05:10:57.544Z,21.10
2019-04-14T05:13:27.029Z,22.13
2019-04-14T05:15:55.986Z,21.07
2019-04-14T05:18:24.786Z,19.10
2019-04-14T05:20:53.439Z,17.90
2019-04-14T05:23:21.940Z,20.73
2019-04-14T05:25:51.639Z,21.77
2019-04-14T05:28:20.338Z,18.83
2019-04-14T05:30:48.873Z,22.83
2019-04-14T05:33:18.320Z,20.37
2019-04-14T05:35:47.143Z,18.27
2019-04-14T05:38:16.847Z,21.10
2019-04-14T05:40:45.630Z,20.47
2019-04-14T05:43:27.355Z,21.27
2019-04-14T05:45:44.364Z,17.50
2019-04-14T05:48:13.937Z,19.47
2019-04-14T05:50:42.502Z,17.90
2019-04-14T05:53:11.109Z,19.27
2019-04-14T05:55:39.602Z,20.80
2019-04-14T05:58:08.102Z,21.33
2019-04-14T06:00:38.581Z,17.53
2019-04-14T06:03:08.087Z,16.13
2019-04-14T06:05:36.605Z,18.10
2019-04-14T06:08:05.461Z,18.93
2019-04-14T06:10:34.794Z,17.73
2019-04-14T06:13:03.306Z,21.60
2019-04-14T06:15:31.803Z,15.00
2019-04-14T06:18:00.310Z,18.97
2019-04-14T06:20:28.776Z,16.17
2019-04-14T06:22:57.960Z,16.63
2019-04-14T06:25:26.436Z,14.93
2019-04-14T06:27:54.944Z,15.67
2019-04-14T06:30:27.857Z,13.50
2019-04-14T06:32:57.968Z,13.83
2019-04-14T06:35:31.065Z,12.13
2019-04-14T06:38:01.224Z,12.17
2019-04-14T06:40:39.916Z,13.23
2019-04-14T06:43:08.397Z,12.53
2019-04-14T06:45:36.934Z,10.90
2019-04-14T06:48:05.476Z,11.97
2019-04-14T06:50:33.967Z,12.00
2019-04-14T06:53:02.495Z,12.37
2019-04-14T06:55:30.996Z,10.07
2019-04-14T06:57:59.532Z,11.17
2019-04-14T07:00:28.048Z,12.60
2019-04-14T07:02:56.546Z,11.90
2019-04-14T07:05:25.017Z,11.57
2019-04-14T07:07:57.315Z,11.27
2019-04-14T07:10:23.755Z,10.87
2019-04-14T07:12:52.844Z,12.57
2019-04-14T07:15:21.287Z,10.60
2019-04-14T07:17:49.820Z,11.97
2019-04-14T07:20:18.262Z,12.00
2019-04-14T07:22:46.783Z,11.77
2019-04-14T07:25:15.226Z,13.03
2019-04-14T07:27:44.028Z,12.20
2019-04-14T07:30:20.442Z,12.73
2019-04-14T07:32:53.567Z,12.93
2019-04-14T07:35:29.969Z,12.80
2019-04-14T07:38:12.301Z,13.57
2019-04-14T07:40:58.870Z,13.87
2019-04-14T07:43:38.271Z,15.20
2019-04-14T07:46:08.440Z,14.30
2019-04-14T07:48:44.739Z,14.50
2019-04-14T07:51:23.893Z,16.47
2019-04-14T07:53:54.046Z,14.57
2019-04-14T07:56:24.335Z,15.13
2019-04-14T07:59:00.460Z,18.17
2019-04-14T08:01:36.762Z,17.50
2019-04-14T08:04:12.721Z,15.50
2019-04-14T08:06:43.186Z,16.60
2019-04-14T08:09:12.234Z,16.10
2019-04-14T08:11:41.370Z,20.60
2019-04-14T08:14:09.863Z,16.50
2019-04-14T08:16:38.371Z,17.80
2019-04-14T08:19:06.845Z,15.30
2019-04-14T08:21:35.359Z,16.97
2019-04-14T08:24:03.851Z,18.97
2019-04-14T08:26:32.355Z,15.87
2019-04-14T08:29:01.093Z,18.87
2019-04-14T08:31:29.620Z,17.27
2019-04-14T08:33:58.153Z,17.60
2019-04-14T08:36:26.618Z,17.10
2019-04-14T08:38:55.105Z,20.40
2019-04-14T08:41:23.579Z,16.07
2019-04-14T08:44:09.074Z,18.30
2019-04-14T08:46:55.569Z,22.73
2019-04-14T08:49:42.160Z,18.80
2019-04-14T08:52:15.472Z,16.93
2019-04-14T08:54:54.828Z,19.90
2019-04-14T08:57:40.454Z,19.50
2019-04-14T09:00:13.313Z,22.60
2019-04-14T09:02:43.485Z,19.37
2019-04-14T09:05:19.518Z,18.20
2019-04-14T09:07:49.736Z,20.17
2019-04-14T09:10:19.857Z,20.90
2019-04-14T09:12:53.011Z,20.53
2019-04-14T09:15:21.941Z,22.83
2019-04-14T09:17:50.402Z,18.90
2019-04-14T09:20:18.894Z,24.10
2019-04-14T09:22:47.378Z,22.77
2019-04-14T09:25:16.214Z,19.10
2019-04-14T09:27:44.746Z,23.70
2019-04-14T09:30:14.076Z,21.67
2019-04-14T09:32:42.569Z,20.20
2019-04-14T09:35:11.217Z,24.20
2019-04-14T09:37:39.701Z,22.47
2019-04-14T09:40:08.373Z,22.80
2019-04-14T09:42:36.947Z,21.40
2019-04-14T09:45:06.572Z,28.93
2019-04-14T09:47:35.954Z,22.60
2019-04-14T09:50:06.061Z,20.83
2019-04-14T09:52:34.644Z,23.30
2019-04-14T09:55:03.258Z,23.93
2019-04-14T09:57:31.761Z,20.70
2019-04-14T10:00:00.224Z,22.73
2019-04-14T10:02:29.123Z,22.57
2019-04-14T10:04:57.589Z,22.80
2019-04-14T10:07:26.163Z,23.17
2019-04-14T10:09:54.609Z,24.13
2019-04-14T10:12:23.096Z,25.63
2019-04-14T10:14:51.582Z,20.40
2019-04-14T10:17:20.150Z,24.00
2019-04-14T10:19:48.685Z,22.90
2019-04-14T10:22:17.210Z,22.67
2019-04-14T10:24:45.749Z,28.57
2019-04-14T10:27:14.298Z,26.03
2019-04-14T10:29:42.774Z,23.77
2019-04-14T10:32:11.441Z,20.90
2019-04-14T10:34:39.910Z,24.40
2019-04-14T10:37:08.540Z,22.73
2019-04-14T10:39:37.015Z,20.77
2019-04-14T10:42:05.574Z,24.73
2019-04-14T10:44:34.027Z,24.17
2019-04-14T10:47:03.259Z,20.03
2019-04-14T10:49:31.909Z,23.97
2019-04-14T10:52:00.647Z,22.60
2019-04-14T10:54:29.159Z,25.53
2019-04-14T10:56:57.741Z,20.17
2019-04-14T10:59:26.220Z,24.90
2019-04-14T11:01:54.804Z,22.07
2019-04-14T11:04:23.316Z,20.03
2019-04-14T11:06:56.268Z,25.83
2019-04-14T11:09:24.750Z,21.37
2019-04-14T11:11:53.284Z,20.50
2019-04-14T11:14:21.817Z,27.57
2019-04-14T11:16:50.293Z,28.50
2019-04-14T11:19:18.768Z,24.30
2019-04-14T11:21:47.438Z,23.20
2019-04-14T11:24:16.154Z,20.53
2019-04-14T11:26:44.658Z,21.50
2019-04-14T11:29:13.159Z,24.90
2019-04-14T11:31:55.189Z,23.63
2019-04-14T11:34:31.265Z,23.70
2019-04-14T11:37:07.197Z,24.60
2019-04-14T11:39:36.290Z,22.47
2019-04-14T11:42:04.814Z,23.83
2019-04-14T11:44:34.640Z,23.23
2019-04-14T11:47:03.882Z,23.10
2019-04-14T11:49:32.477Z,22.30
2019-04-14T11:52:00.985Z,19.90
2019-04-14T11:54:30.459Z,21.20
2019-04-14T11:56:59.206Z,20.57
2019-04-14T11:59:29.649Z,23.90
2019-04-14T12:02:05.994Z,23.67
2019-04-14T12:04:36.160Z,21.60
2019-04-14T12:07:26.588Z,27.83
2019-04-14T12:09:56.888Z,23.40
2019-04-14T12:12:25.369Z,21.30
2019-04-14T12:14:54.730Z,22.53
2019-04-14T12:17:23.241Z,22.23
2019-04-14T12:19:52.172Z,22.27
2019-04-14T12:22:20.640Z,18.97
2019-04-14T12:24:50.854Z,20.90
2019-04-14T12:27:21.653Z,22.80
2019-04-14T12:29:50.247Z,21.60
2019-04-14T12:32:19.327Z,22.30
2019-04-14T12:34:48.602Z,27.63
2019-04-14T12:37:17.114Z,23.47
2019-04-14T12:39:46.061Z,18.63
2019-04-14T12:42:34.372Z,21.77
2019-04-14T12:45:07.720Z,20.37
2019-04-14T12:47:41.018Z,23.23
2019-04-14T12:50:11.407Z,17.43
2019-04-14T12:52:43.576Z,22.53
2019-04-14T12:55:12.515Z,22.43
2019-04-14T12:57:51.563Z,25.93
2019-04-14T13:00:31.931Z,22.27
2019-04-14T13:03:02.118Z,18.47
2019-04-14T13:05:30.660Z,20.40
2019-04-14T13:07:59.192Z,20.17
2019-04-14T13:10:27.699Z,18.33
2019-04-14T13:12:56.305Z,18.60
2019-04-14T13:15:24.818Z,22.70
2019-04-14T13:17:53.567Z,21.20
2019-04-14T13:20:22.036Z,20.60
2019-04-14T13:22:50.687Z,21.17
2019-04-14T13:25:19.230Z,22.03
2019-04-14T13:27:50.768Z,21.20
2019-04-14T13:30:21.119Z,22.40
2019-04-14T13:32:49.600Z,17.70
2019-04-14T13:35:18.245Z,17.60
2019-04-14T13:37:46.728Z,23.90
2019-04-14T13:40:15.394Z,20.87
2019-04-14T13:42:43.865Z,23.43
2019-04-14T13:45:12.566Z,23.53
2019-04-14T13:47:41.032Z,21.13
2019-04-14T13:50:10.207Z,19.67
2019-04-14T13:52:46.450Z,23.33
2019-04-14T13:55:09.081Z,19.20
2019-04-14T13:57:37.539Z,22.40
2019-04-14T14:00:09.932Z,20.10
2019-04-14T14:02:38.713Z,18.70
2019-04-14T14:05:07.382Z,19.33
2019-04-14T14:07:35.930Z,17.07
2019-04-14T14:10:06.746Z,21.43
2019-04-14T14:12:36.925Z,16.20
2019-04-14T14:15:26.232Z,16.83
2019-04-14T14:18:05.736Z,16.17
2019-04-14T14:20:36.253Z,16.53
2019-04-14T14:23:09.350Z,17.97
2019-04-14T14:25:42.310Z,15.60
2019-04-14T14:28:10.886Z,15.37
2019-04-14T14:30:39.361Z,17.50
2019-04-14T14:33:07.981Z,22.80
2019-04-14T14:35:36.592Z,18.60
2019-04-14T14:38:05.294Z,14.60
2019-04-14T14:40:33.808Z,16.40
2019-04-14T14:43:02.452Z,15.40
2019-04-14T14:45:50.771Z,16.67
2019-04-14T14:48:23.702Z,15.67
2019-04-14T14:50:54.213Z,13.30
2019-04-14T14:53:22.661Z,18.37
2019-04-14T14:55:51.378Z,19.77
2019-04-14T14:58:19.880Z,14.43
2019-04-14T15:00:48.454Z,14.20
2019-04-14T15:03:17.151Z,16.50
2019-04-14T15:05:45.727Z,13.23
2019-04-14T15:08:14.199Z,12.83
2019-04-14T15:10:42.681Z,14.83
2019-04-14T15:13:11.223Z,14.07
2019-04-14T15:15:39.770Z,15.33
2019-04-14T15:18:08.312Z,19.00
2019-04-14T15:20:36.901Z,13.90
2019-04-14T15:23:05.663Z,14.30
2019-04-14T15:25:34.192Z,24.67
2019-04-14T15:28:02.708Z,15.20
2019-04-14T15:30:31.257Z,17.33
2019-04-14T15:32:59.749Z,18.47
2019-04-14T15:35:28.429Z,18.33
2019-04-14T15:37:56.909Z,16.00
2019-04-14T15:40:25.418Z,13.83
2019-04-14T15:42:53.978Z,16.90
2019-04-14T15:45:22.516Z,17.60
2019-04-14T15:47:51.029Z,15.77
2019-04-14T15:50:19.496Z,14.20
2019-04-14T15:52:48.037Z,13.57
2019-04-14T15:55:18.090Z,14.17
2019-04-14T15:57:48.658Z,20.17
2019-04-14T16:00:36.732Z,15.00
2019-04-14T16:03:09.759Z,15.03
2019-04-14T16:05:42.717Z,18.73
2019-04-14T16:08:15.713Z,15.00
2019-04-14T16:10:45.939Z,15.23
2019-04-14T16:13:24.926Z,15.73
2019-04-14T16:15:55.085Z,19.73
2019-04-14T16:18:43.486Z,14.00
2019-04-14T16:21:12.050Z,17.80
2019-04-14T16:23:50.061Z,14.97
2019-04-14T16:26:24.540Z,20.30
2019-04-14T16:28:57.495Z,12.27
2019-04-14T16:31:30.208Z,15.67
2019-04-14T16:34:03.340Z,17.90
2019-04-14T16:36:31.843Z,25.30
2019-04-14T16:39:00.353Z,30.33
2019-04-14T16:41:28.849Z,16.30
2019-04-14T16:43:57.368Z,15.93
2019-04-14T16:46:25.944Z,22.10
2019-04-14T16:48:54.465Z,18.77
2019-04-14T16:51:30.195Z,23.03
2019-04-14T16:54:03.254Z,19.63
2019-04-14T16:56:40.967Z,19.50
2019-04-14T16:59:11.968Z,15.73
2019-04-14T17:01:43.296Z,13.63
2019-04-14T17:04:11.875Z,17.13
2019-04-14T17:06:40.740Z,20.47
2019-04-14T17:09:09.313Z,18.90
2019-04-14T17:11:37.866Z,14.67
2019-04-14T17:14:14.260Z,15.60
2019-04-14T17:16:47.721Z,16.03
2019-04-14T17:19:21.003Z,18.30
2019-04-14T17:21:52.747Z,18.20
2019-04-14T17:24:29.320Z,18.60
2019-04-14T17:27:05.425Z,18.43
2019-04-14T17:29:35.751Z,19.77
2019-04-14T17:32:23.982Z,17.80
2019-04-14T17:34:56.748Z,15.53
2019-04-14T17:37:42.133Z,17.20
2019-04-14T17:40:18.406Z,18.53
2019-04-14T17:43:03.514Z,18.73
2019-04-14T17:45:36.527Z,20.80
2019-04-14T17:48:10.213Z,18.20
2019-04-14T17:50:41.349Z,14.17
2019-04-14T17:53:14.279Z,16.53
2019-04-14T17:55:49.894Z,24.73
2019-04-14T17:58:24.428Z,17.30
2019-04-14T18:01:12.775Z,16.87
2019-04-14T18:03:48.843Z,14.80
2019-04-14T18:06:20.911Z,13.20
2019-04-14T18:08:51.278Z,15.33
2019-04-14T18:11:33.331Z,16.33
2019-04-14T18:14:12.067Z,13.57
2019-04-14T18:16:54.262Z,18.20
2019-04-14T18:19:24.646Z,15.93
2019-04-14T18:21:53.246Z,19.93
2019-04-14T18:24:21.789Z,15.20
2019-04-14T18:26:50.263Z,18.93
2019-04-14T18:29:26.326Z,18.30
2019-04-14T18:32:05.285Z,16.13
2019-04-14T18:34:38.577Z,17.43
2019-04-14T18:37:08.813Z,16.63
2019-04-14T18:39:51.235Z,14.60
2019-04-14T18:42:21.371Z,17.53
2019-04-14T18:44:54.462Z,15.70
2019-04-14T18:47:27.546Z,14.43
2019-04-14T18:49:57.650Z,16.77
2019-04-14T18:52:31.563Z,15.37
2019-04-14T18:55:07.655Z,19.13
2019-04-14T18:57:56.444Z,15.90
2019-04-14T19:00:26.828Z,14.80
2019-04-14T19:02:55.392Z,18.97
2019-04-14T19:05:23.892Z,13.40
2019-04-14T19:07:52.486Z,16.93
2019-04-14T19:10:21.043Z,13.80
2019-04-14T19:12:53.814Z,14.70
2019-04-14T19:15:26.773Z,12.23
2019-04-14T19:17:56.976Z,13.67
2019-04-14T19:20:25.425Z,12.77
2019-04-14T19:22:53.912Z,13.63
2019-04-14T19:25:22.417Z,13.27
2019-04-14T19:27:50.999Z,12.57
2019-04-14T19:30:19.620Z,9.90
2019-04-14T19:32:48.131Z,11.00
2019-04-14T19:35:16.609Z,9.60
2019-04-14T19:37:45.142Z,14.17
2019-04-14T19:40:13.888Z,10.07
2019-04-14T19:42:42.589Z,14.10
2019-04-14T19:45:11.283Z,13.83
2019-04-14T19:47:39.839Z,12.73
2019-04-14T19:50:08.677Z,11.53
2019-04-14T19:52:37.383Z,9.93
2019-04-14T19:55:19.485Z,13.27
2019-04-14T19:57:37.555Z,7.50
2019-04-14T20:00:07.169Z,11.27
2019-04-14T20:02:35.714Z,8.30
2019-04-14T20:05:06.272Z,12.67
2019-04-14T20:07:34.827Z,9.87
2019-04-14T20:10:04.013Z,9.47
2019-04-14T20:12:32.491Z,9.57
2019-04-14T20:15:01.007Z,12.10
2019-04-14T20:17:31.113Z,10.33
2019-04-14T20:20:01.253Z,15.83
2019-04-14T20:22:48.014Z,11.43
2019-04-14T20:25:33.686Z,7.00
2019-04-14T20:28:01.362Z,20.33
2019-04-14T20:30:31.467Z,16.60
2019-04-14T20:32:59.946Z,7.63
2019-04-14T20:35:28.490Z,10.80
2019-04-14T20:37:57.468Z,10.40
2019-04-14T20:40:25.935Z,12.60
2019-04-14T20:42:54.405Z,12.10
2019-04-14T20:45:23.070Z,9.47
2019-04-14T20:47:51.607Z,11.23
2019-04-14T20:50:20.221Z,16.03
2019-04-14T20:52:48.833Z,12.13
2019-04-14T20:55:17.304Z,9.13
2019-04-14T20:57:45.996Z,11.40
2019-04-14T21:00:15.463Z,11.73
2019-04-14T21:02:54.252Z,12.00
2019-04-14T21:05:33.436Z,12.30
2019-04-14T21:08:12.502Z,11.07
2019-04-14T21:10:42.678Z,11.80
2019-04-14T21:13:15.652Z,9.60
2019-04-14T21:15:50.141Z,15.03
2019-04-14T21:18:20.246Z,11.43
2019-04-14T21:20:53.350Z,8.73
2019-04-14T21:23:32.623Z,11.30
2019-04-14T21:26:05.462Z,8.50
2019-04-14T21:28:35.579Z,10.07
2019-04-14T21:31:05.730Z,10.73
2019-04-14T21:33:54.393Z,9.17
2019-04-14T21:36:24.785Z,13.50
2019-04-14T21:38:55.016Z,13.47
2019-04-14T21:41:35.711Z,11.13
2019-04-14T21:44:04.879Z,13.33
2019-04-14T21:46:33.526Z,8.80
2019-04-14T21:49:02.123Z,11.10
2019-04-14T21:51:34.642Z,10.60
2019-04-14T21:54:03.549Z,9.70
2019-04-14T21:56:33.647Z,9.73
2019-04-14T21:59:06.926Z,11.97
2019-04-14T22:01:53.747Z,10.30
2019-04-14T22:04:29.418Z,14.40
2019-04-14T22:06:59.642Z,7.13
2019-04-14T22:09:32.427Z,9.57
2019-04-14T22:12:02.593Z,14.93
2019-04-14T22:14:31.038Z,10.93
2019-04-14T22:16:59.522Z,14.60
2019-04-14T22:19:28.159Z,12.23
2019-04-14T22:21:56.700Z,11.97
2019-04-14T22:24:25.128Z,9.40
2019-04-14T22:26:53.610Z,12.10
2019-04-14T22:29:22.124Z,11.13
2019-04-14T22:31:50.641Z,10.00
2019-04-14T22:34:19.077Z,13.70
2019-04-14T22:36:47.569Z,14.20
2019-04-14T22:39:17.852Z,15.50
2019-04-14T22:41:46.371Z,11.57
2019-04-14T22:44:14.874Z,16.40
2019-04-14T22:46:43.405Z,14.07
2019-04-14T22:49:11.880Z,11.00
2019-04-14T22:51:40.370Z,9.43
2019-04-14T22:54:08.823Z,11.63
2019-04-14T22:56:39.578Z,10.70
2019-04-14T22:59:07.836Z,10.93
2019-04-14T23:01:38.318Z,12.40
2019-04-14T23:04:10.830Z,13.47
2019-04-14T23:06:56.044Z,17.37
2019-04-14T23:09:29.206Z,15.30
2019-04-14T23:12:02.066Z,12.83
2019-04-14T23:14:35.163Z,8.57
2019-04-14T23:17:16.865Z,12.30
2019-04-14T23:19:49.906Z,10.47
2019-04-14T23:22:31.954Z,11.00
2019-04-14T23:25:00.486Z,11.07
2019-04-14T23:27:29.034Z,11.73
2019-04-14T23:29:57.492Z,14.57
2019-04-14T23:32:25.974Z,10.83
2019-04-14T23:34:54.427Z,11.40
2019-04-14T23:37:22.906Z,15.53
2019-04-14T23:39:51.381Z,12.43
2019-04-14T23:42:20.030Z,13.90
2019-04-14T23:44:48.503Z,11.37
2019-04-14T23:47:16.983Z,13.90
2019-04-14T23:49:45.495Z,7.97
2019-04-14T23:52:13.931Z,12.73
2019-04-14T23:54:42.515Z,15.73
2019-04-14T23:57:10.964Z,12.53
2019-04-14T23:59:39.448Z,10.33
